Terminal Aerodrome Forecast
Issued by NWS Sterling, VA

Current Version | Previous Version | Graphics & Text | Print | Product List | Glossary On
Versions: 1 2 3 4 5 6 7 8 9 10 11 12 13 14 15 16 17 18 19 20 21
355
FTUS41 KLWX 121455 AAA
TAFIAD
TAF AMD
KIAD 121455Z 1215/1318 19006KT P6SM BKN090 OVC130
     FM130100 26005KT P6SM -SHSN BKN040
     FM130600 30011G23KT P6SM BKN040
     FM131000 31015G30KT P6SM SCT040
     FM131400 31019G38KT P6SM SCT040=

USA.gov is the U.S. government's official web portal to all federal, state and local government web resources and services.